MSC Cordoba — A8OF8 — position and weather

sailwx.info

Track history (hours):
 
Tides and Currents Weather Stations Pressure Air Temp Water Temp Dewpoint Dewpoint Depression Visibility Wind Speed Wind Dir Waves Ship Positions

MSC Cordoba

Last reported at 2015-May-28 07:33 UTC. Time now 2015-May-28 08:05 UTC.
Position N 51°58' E 001°18'.

Length 274 m; draft 11.9 m.

Type: Ship. MMSI: 636091473.

Date/timePositionNaut miles runAvg speedWind from/ knotsBaromVisibWave heightAir tempDewpointWater temp
2015-May-28 07:33N 51°58' E 001°18'0 0.0
2015-May-28 06:33N 51°58' E 001°18'4 3.6
2015-May-28 05:33N 51°56' E 001°23'1010.4
2015-May-28 04:33N 51°52' E 001°38'5 4.7
2015-May-28 03:33N 51°51' E 001°46'10 9.8
2015-May-28 02:33N 51°42' E 001°49'1111.4
2015-May-28 01:34N 51°30' E 001°47'1211.9
2015-May-28 00:33N 51°19' E 001°43'1312.9
2015-May-27 23:33N 51°06' E 001°40'1615.7
2015-May-27 22:33N 50°53' E 001°25'1514.7
2015-May-27 21:31N 50°39' E 001°15'1325.5
2015-May-27 21:00N 50°30' E 001°00'2 5.2 200 / 161020.010.8 15.010.613.0
2015-May-27 20:33N 50°31' E 000°57'1515.1
2015-May-27 19:33N 50°27' E 000°33'3515.5
2015-May-27 17:17N 50°17' W 000°19'1416.2
2015-May-27 16:25N 50°13' W 000°40'69215.1
2015-May-25 18:33N 40°39' W 009°50'1616.0
2015-May-25 17:33N 40°23' W 009°51'1616.1
2015-May-25 16:33N 40°07' W 009°52'1616.0
2015-May-25 15:33N 39°51' W 009°53'1616.1
2015-May-25 14:33N 39°35' W 009°53'1715.7
2015-May-25 13:30N 39°19' W 009°53'1515.6
2015-May-25 12:33N 39°04' W 009°53'1615.6
2015-May-25 11:33N 38°48' W 009°52'1615.8
2015-May-25 10:33N 38°32' W 009°49'1616.2
2015-May-25 09:33N 38°17' W 009°45'1616.5
2015-May-25 08:33N 38°01' W 009°40'1818.0
2015-May-25 07:34N 37°43' W 009°35'1818.0
2015-May-25 06:33N 37°26' W 009°30'1917.6
2015-May-25 05:29N 37°07' W 009°25'1617.5
2015-May-25 04:33N 36°52' W 009°19'1717.5
2015-May-25 03:34N 36°43' W 009°00'1818.1
2015-May-25 02:34N 36°38' W 008°39'1817.9
2015-May-25 01:33N 36°32' W 008°17'1818.0
2015-May-25 00:33N 36°26' W 007°56'12317.5
2015-May-24 17:32N 36°00' W 005°27'15018.6
2015-May-24 09:26N 36°24' W 002°23'23719.0
2015-May-23 21:00N 36°54' E 002°30'44618.6 070 / 171017.010.8 19.012.419.0
2015-May-22 21:00N 37°12' E 011°48'10118.1 310 / 251016.010.8 0.519.011.418.0
2015-May-22 15:25N 36°41' E 013°48'1618.4
2015-May-22 14:33N 36°36' E 014°07'1918.7
2015-May-22 13:34N 36°30' E 014°29'32519.6
2015-May-21 21:00N 36°18' E 021°12'10519.3 190 / 61015.010.8 23.016.920.0
2015-May-21 15:32N 36°34' E 023°21'  
Track history (hours):
 
Tides and Currents Weather Stations Pressure Air Temp Water Temp Dewpoint Dewpoint Depression Visibility Wind Speed Wind Dir Waves Ship Positions

MSC Cordoba

Last reported at 2015-May-28 07:33 UTC. Time now 2015-May-28 08:06 UTC.
Position N 51°58' E 001°18'.

Length 274 m; draft 11.9 m.

Type: Ship. MMSI: 636091473.

Date/timePositionNaut miles runAvg speedWind from/ knotsBaromVisibWave heightAir tempDewpointWater temp
2015-May-28 07:33N 51°58' E 001°18'0 0.0
2015-May-28 06:33N 51°58' E 001°18'4 3.6
2015-May-28 05:33N 51°56' E 001°23'1010.4
2015-May-28 04:33N 51°52' E 001°38'5 4.7
2015-May-28 03:33N 51°51' E 001°46'10 9.8
2015-May-28 02:33N 51°42' E 001°49'1111.4
2015-May-28 01:34N 51°30' E 001°47'1211.9
2015-May-28 00:33N 51°19' E 001°43'1312.9
2015-May-27 23:33N 51°06' E 001°40'1615.7
2015-May-27 22:33N 50°53' E 001°25'1514.7
2015-May-27 21:31N 50°39' E 001°15'1325.5
2015-May-27 21:00N 50°30' E 001°00'2 5.2 200 / 161020.010.8 15.010.613.0
2015-May-27 20:33N 50°31' E 000°57'1515.1
2015-May-27 19:33N 50°27' E 000°33'3515.5
2015-May-27 17:17N 50°17' W 000°19'1416.2
2015-May-27 16:25N 50°13' W 000°40'69215.1
2015-May-25 18:33N 40°39' W 009°50'1616.0
2015-May-25 17:33N 40°23' W 009°51'1616.1
2015-May-25 16:33N 40°07' W 009°52'1616.0
2015-May-25 15:33N 39°51' W 009°53'1616.1
2015-May-25 14:33N 39°35' W 009°53'1715.7
2015-May-25 13:30N 39°19' W 009°53'1515.6
2015-May-25 12:33N 39°04' W 009°53'1615.6
2015-May-25 11:33N 38°48' W 009°52'1615.8
2015-May-25 10:33N 38°32' W 009°49'1616.2
2015-May-25 09:33N 38°17' W 009°45'1616.5
2015-May-25 08:33N 38°01' W 009°40'1818.0
2015-May-25 07:34N 37°43' W 009°35'1818.0
2015-May-25 06:33N 37°26' W 009°30'1917.6
2015-May-25 05:29N 37°07' W 009°25'1617.5
2015-May-25 04:33N 36°52' W 009°19'1717.5
2015-May-25 03:34N 36°43' W 009°00'1818.1
2015-May-25 02:34N 36°38' W 008°39'1817.9
2015-May-25 01:33N 36°32' W 008°17'1818.0
2015-May-25 00:33N 36°26' W 007°56'12317.5
2015-May-24 17:32N 36°00' W 005°27'15018.6
2015-May-24 09:26N 36°24' W 002°23'23719.0
2015-May-23 21:00N 36°54' E 002°30'44618.6 070 / 171017.010.8 19.012.419.0
2015-May-22 21:00N 37°12' E 011°48'10118.1 310 / 251016.010.8 0.519.011.418.0
2015-May-22 15:25N 36°41' E 013°48'1618.4
2015-May-22 14:33N 36°36' E 014°07'1918.7
2015-May-22 13:34N 36°30' E 014°29'32519.6
2015-May-21 21:00N 36°18' E 021°12'10519.3 190 / 61015.010.8 23.016.920.0
2015-May-21 15:32N 36°34' E 023°21'  

Dump ship's entire track history